Nezperce, ID (83543)

1:50 PM PDT on October 01, 2014 (GMT -0700)
Highland Schools | Change Station
CLOSE
Current Station
Personal Weather Station
Location: Craigmont, ID
Elevation: 3783 ft
Nearby Weather Stations

Elev 3783 ft 46.24 °N, 116.47 °W | Updated 0 second ago

Partly Cloudy
Partly Cloudy
53.2 °F
Feels Like 53.2 °F
N
8.1
Wind Variable Wind from WNW
Gusts 8.1 mph

Today
High -- | Low -- °F
--% Chance of Precip.
Yesterday
High -- | Low -- °F
Precip. -- in
6:43 AM 6:24 PM
Waxing Crescent, 51% visible
Pressure 30.03 in
Visibility 10.0 miles
Clouds Scattered Clouds 4300 ft
Overcast 5000 ft
Dew Point 37 °F
Humidity 55%
Rainfall 0.00 in
Snow Depth 0 in , 0 in , 0 in
UV 1 out of 12
Pollen 5.80 out of 12
PM2.5 Good
Flu Activity Not available.
METAR KGIC 302135Z AUTO 31013G16KT 10SM SCT043 OVC050 12/02 A3003 RMK AO1 T01210024

More Conditions Fewer Conditions

Pressure 30.03 in
Visibility 10.0 miles
Clouds Scattered Clouds 4300 ft
Overcast 5000 ft
Dew Point 37 °F
Humidity 55%
Rainfall 0.00 in
Snow Depth 0 in , 0 in , 0 in
UV 1 out of 12
Pollen 5.80 out of 12
PM2.5 Good
Flu Activity Not available.
METAR KGIC 302135Z AUTO 31013G16KT 10SM SCT043 OVC050 12/02 A3003 RMK AO1 T01210024

More Conditions Fewer Conditions

10-Day Weather Forecast

Almanac

Astronomy

Oct. 01, 2014 Rise Set
Actual Time 6:43 AM PDT 6:24 PM PDT
Civil Twilight 6:13 AM PDT 6:54 PM PDT
Nautical Twilight 5:38 AM PDT 7:29 PM PDT
Astronomical Twilight 5:03 AM PDT 8:04 PM PDT
Moon 2:02 PM PDT 11:47 PM PDT
Length of Visible Light 12h 40m
Length of Day
11h 41m
Tomorrow will be 3m 14s shorter.
Waxing Crescent, 51% of the Moon is Illuminated
Today
Waxing Crescent
Oct 8
Full
Oct 15
Last Quarter
Oct 23
New
Oct 30
First Quarter

Today's Extremes

State Highs State Lows

Community

WunderPhotos

Upload Photos

1,758,043 photos uploaded!

WunderBlogs® & News

By Dr. Jeff Masters
Director of Meteorology, Weather Underground
By Kari Strenfel
Meteorologist, Weather Underground
By Christopher C. Burt
Weather Historian, Weather Underground
October 1, 2014
October 1, 2014
October 1, 2014

Nearby

Air Quality

  Air Quality AQ Index Pollutant
Yesterday Good
PM2.5
Current Good
PM2.5
Wednesday Good
PM2.5
Thursday Good
PM2.5
Friday Good
PM2.5

Snow Depth

Station Depth Elevation
Pine Creek Pass 0 in 6720 ft
Magic Mountain 0 in 6880 ft
Sunset 0 in 5540 ft
Lookout 0 in 5140 ft
Mica Creek 1 in 4750 ft

Earthquake Activity

City Distance Mag. Time & Date
No recent earthquake activity has been reported nearby.
Minimum magnitude displayed is 2.5.

Coastal Water Temperatures

Place Temperature
No Stations Reporting

Nearby Weather Stations